createdAt,value
2017-02-02T00:00:10.074Z,49.27
2017-02-02T00:00:24.663Z,49.36
2017-02-02T00:00:39.265Z,49.07
2017-02-02T00:00:53.818Z,49.07
2017-02-02T00:01:08.360Z,49.27
2017-02-02T00:01:22.972Z,49.46
2017-02-02T00:01:37.568Z,49.27
2017-02-02T00:01:52.120Z,49.36
2017-02-02T00:02:06.739Z,49.27
2017-02-02T00:02:21.304Z,49.07
2017-02-02T00:02:35.936Z,48.97
2017-02-02T00:02:50.522Z,48.88
2017-02-02T00:03:05.096Z,48.49
2017-02-02T00:03:19.606Z,48.21
2017-02-02T00:03:34.200Z,48.11
2017-02-02T00:03:48.794Z,47.63
2017-02-02T00:04:03.386Z,47.53
2017-02-02T00:04:18.036Z,47.72
2017-02-02T00:04:32.636Z,47.53
2017-02-02T00:04:47.220Z,47.44
2017-02-02T00:05:01.957Z,47.34
2017-02-02T00:05:16.814Z,47.15
2017-02-02T00:05:31.394Z,47.24
2017-02-02T00:05:45.960Z,47.15
2017-02-02T00:06:00.554Z,46.86
2017-02-02T00:06:15.174Z,46.86
2017-02-02T00:06:29.774Z,47.05
2017-02-02T00:06:44.348Z,46.57
2017-02-02T00:06:58.883Z,46.67
2017-02-02T00:07:13.471Z,46.57
2017-02-02T00:07:28.039Z,46.86
2017-02-02T00:07:42.586Z,46.95
2017-02-02T00:07:57.172Z,46.77
2017-02-02T00:08:11.784Z,46.67
2017-02-02T00:08:26.365Z,46.57
2017-02-02T00:08:40.980Z,46.57
2017-02-02T00:08:55.612Z,46.67
2017-02-02T00:09:10.209Z,46.57
2017-02-02T00:09:24.851Z,47.63
2017-02-02T00:09:39.367Z,47.53
2017-02-02T00:09:53.990Z,48.4
2017-02-02T00:10:08.512Z,49.46
2017-02-02T00:10:23.067Z,50.9
2017-02-02T00:10:37.664Z,50.71
2017-02-02T00:10:52.275Z,50.61
2017-02-02T00:11:06.838Z,50.32
2017-02-02T00:11:21.468Z,50.13
2017-02-02T00:11:36.088Z,49.94
2017-02-02T00:11:50.662Z,49.94
2017-02-02T00:12:05.477Z,49.84
2017-02-02T00:12:20.127Z,49.84
2017-02-02T00:12:34.735Z,49.74
2017-02-02T00:12:49.332Z,49.55
2017-02-02T00:13:03.891Z,49.46
2017-02-02T00:13:18.454Z,49.55
2017-02-02T00:13:33.010Z,49.27
2017-02-02T00:13:47.890Z,49.17
2017-02-02T00:14:02.481Z,49.07
2017-02-02T00:14:17.130Z,49.17
2017-02-02T00:14:31.733Z,49.07
2017-02-02T00:14:46.290Z,48.97
2017-02-02T00:15:00.861Z,48.69
2017-02-02T00:15:15.425Z,48.79
2017-02-02T00:15:30.018Z,48.4
2017-02-02T00:15:44.652Z,48.49
2017-02-02T00:15:59.223Z,48.3
2017-02-02T00:16:13.811Z,47.82
2017-02-02T00:16:28.400Z,47.92
2017-02-02T00:16:42.987Z,48.11
2017-02-02T00:16:57.553Z,48.02
2017-02-02T00:17:12.169Z,47.82
2017-02-02T00:17:26.764Z,47.63
2017-02-02T00:17:41.323Z,47.53
2017-02-02T00:17:55.921Z,47.15
2017-02-02T00:18:10.499Z,47.72
2017-02-02T00:18:25.062Z,47.53
2017-02-02T00:18:39.597Z,47.63
2017-02-02T00:18:54.193Z,47.53
2017-02-02T00:19:08.770Z,47.63
2017-02-02T00:19:23.345Z,47.82
2017-02-02T00:19:37.953Z,48.11
2017-02-02T00:19:52.527Z,48.49
2017-02-02T00:20:07.143Z,48.49
2017-02-02T00:20:21.934Z,48.49
2017-02-02T00:20:36.492Z,48.59
2017-02-02T00:20:51.052Z,48.4
2017-02-02T00:21:05.639Z,48.11
2017-02-02T00:21:20.190Z,48.21
2017-02-02T00:21:34.798Z,47.72
2017-02-02T00:21:49.603Z,48.11
2017-02-02T00:22:04.216Z,47.92
2017-02-02T00:22:18.852Z,47.82
2017-02-02T00:22:33.407Z,47.92
2017-02-02T00:22:48.078Z,47.51
2017-02-02T00:23:02.677Z,47.53
2017-02-02T00:23:17.299Z,47.53
2017-02-02T00:23:31.834Z,47.51
2017-02-02T00:23:46.359Z,47.41
2017-02-02T00:24:00.962Z,47.34
2017-02-02T00:24:15.619Z,47.41
2017-02-02T00:24:30.245Z,47.31
2017-02-02T00:24:44.864Z,47.24
2017-02-02T00:24:59.484Z,46.95
2017-02-02T00:25:14.046Z,47.05
2017-02-02T00:25:28.676Z,46.74
2017-02-02T00:25:43.244Z,46.64
2017-02-02T00:25:57.803Z,46.86
2017-02-02T00:26:12.400Z,46.95
2017-02-02T00:26:26.982Z,46.86
2017-02-02T00:26:41.484Z,46.57
2017-02-02T00:26:56.101Z,46.67
2017-02-02T00:27:10.659Z,46.38
2017-02-02T00:27:25.200Z,46.16
2017-02-02T00:27:39.743Z,46.38
2017-02-02T00:27:54.341Z,46.38
2017-02-02T00:28:08.960Z,46.38
2017-02-02T00:28:23.545Z,46.36
2017-02-02T00:28:38.096Z,46.26
2017-02-02T00:28:52.740Z,46.16
2017-02-02T00:29:07.325Z,46.06
2017-02-02T00:29:21.866Z,46.26
2017-02-02T00:29:36.484Z,45.78
2017-02-02T00:29:51.051Z,45.97
2017-02-02T00:30:05.655Z,46.06
2017-02-02T00:30:20.260Z,46.16
2017-02-02T00:30:34.779Z,45.99
2017-02-02T00:30:49.430Z,45.78
2017-02-02T00:31:04.044Z,45.9
2017-02-02T00:31:18.695Z,46.06
2017-02-02T00:31:33.252Z,46.26
2017-02-02T00:31:47.858Z,46.26
2017-02-02T00:32:02.414Z,45.97
2017-02-02T00:32:16.937Z,46.16
2017-02-02T00:32:31.533Z,46.26
2017-02-02T00:32:46.164Z,46.26
2017-02-02T00:33:00.791Z,45.97
2017-02-02T00:33:15.367Z,45.87
2017-02-02T00:33:29.931Z,45.97
2017-02-02T00:33:44.713Z,46.16
2017-02-02T00:33:59.267Z,46.26
2017-02-02T00:34:13.835Z,46.26
2017-02-02T00:34:28.397Z,46.36
2017-02-02T00:34:42.998Z,46.26
2017-02-02T00:34:57.619Z,46.16
2017-02-02T00:35:12.164Z,46.06
2017-02-02T00:35:26.737Z,46.26
2017-02-02T00:35:41.523Z,46.26
2017-02-02T00:35:56.153Z,46.26
2017-02-02T00:36:10.747Z,46.16
2017-02-02T00:36:25.404Z,46.06
2017-02-02T00:36:40.079Z,46.16
2017-02-02T00:36:54.651Z,45.97
2017-02-02T00:37:09.275Z,45.97
2017-02-02T00:37:23.815Z,46.26
2017-02-02T00:37:38.394Z,46.26
2017-02-02T00:37:52.919Z,46.06
2017-02-02T00:38:07.524Z,46.16
2017-02-02T00:38:22.189Z,46.06
2017-02-02T00:38:36.921Z,46.26
2017-02-02T00:38:51.572Z,46.36
2017-02-02T00:39:06.097Z,46.16
2017-02-02T00:39:20.777Z,46.36
2017-02-02T00:39:35.437Z,46.36
2017-02-02T00:39:50.033Z,46.45
2017-02-02T00:40:04.620Z,46.36
2017-02-02T00:40:19.244Z,46.45
2017-02-02T00:40:33.849Z,46.26
2017-02-02T00:40:48.402Z,46.26
2017-02-02T00:41:03.045Z,46.26
2017-02-02T00:41:17.663Z,46.26
2017-02-02T00:41:32.283Z,46.16
2017-02-02T00:41:46.920Z,46.26
2017-02-02T00:42:01.591Z,46.04
2017-02-02T00:42:16.189Z,46.16
2017-02-02T00:42:30.739Z,46.14
2017-02-02T00:42:45.287Z,46.26
2017-02-02T00:42:59.896Z,46.04
2017-02-02T00:43:14.513Z,46.06
2017-02-02T00:43:29.075Z,46.04
2017-02-02T00:43:43.613Z,46.04
2017-02-02T00:43:58.248Z,46.23
2017-02-02T00:44:12.773Z,46.26
2017-02-02T00:44:27.308Z,46.04
2017-02-02T00:44:41.882Z,46.14
2017-02-02T00:44:56.531Z,45.95
2017-02-02T00:45:11.111Z,46.04
2017-02-02T00:45:25.749Z,46.23
2017-02-02T00:45:40.377Z,46.16
2017-02-02T00:45:55.014Z,46.23
2017-02-02T00:46:09.636Z,45.95
2017-02-02T00:46:24.188Z,46.14
2017-02-02T00:46:38.728Z,45.95
2017-02-02T00:46:53.298Z,46.04
2017-02-02T00:47:07.804Z,45.85
2017-02-02T00:47:22.340Z,45.95
2017-02-02T00:47:36.874Z,46.04
2017-02-02T00:47:51.458Z,45.76
2017-02-02T00:48:06.034Z,45.76
2017-02-02T00:48:20.646Z,45.66
2017-02-02T00:48:35.497Z,45.56
2017-02-02T00:48:50.050Z,45.56
2017-02-02T00:49:04.939Z,45.18
2017-02-02T00:49:19.543Z,45.37
2017-02-02T00:49:34.140Z,45.28
2017-02-02T00:49:48.754Z,45.59
2017-02-02T00:50:03.347Z,45.47
2017-02-02T00:50:17.888Z,45.08
2017-02-02T00:50:32.425Z,45.08
2017-02-02T00:50:47.342Z,44.79
2017-02-02T00:51:01.948Z,44.99
2017-02-02T00:51:16.563Z,44.89
2017-02-02T00:51:31.196Z,44.79
2017-02-02T00:51:45.786Z,44.6
2017-02-02T00:52:00.339Z,44.7
2017-02-02T00:52:14.825Z,44.51
2017-02-02T00:52:29.475Z,44.72
2017-02-02T00:52:43.983Z,45.01
2017-02-02T00:52:58.642Z,44.82
2017-02-02T00:53:13.212Z,44.99
2017-02-02T00:53:27.725Z,44.72
2017-02-02T00:53:42.499Z,44.62
2017-02-02T00:53:57.332Z,44.62
2017-02-02T00:54:11.827Z,44.72
2017-02-02T00:54:26.420Z,44.72
2017-02-02T00:54:41.008Z,44.72
2017-02-02T00:54:55.659Z,44.62
2017-02-02T00:55:10.313Z,44.62
2017-02-02T00:55:24.911Z,44.53
2017-02-02T00:55:39.469Z,44.72
2017-02-02T00:55:54.047Z,44.62
2017-02-02T00:56:08.645Z,44.82
2017-02-02T00:56:23.233Z,44.82
2017-02-02T00:56:37.938Z,44.91
2017-02-02T00:56:52.493Z,44.72
2017-02-02T00:57:07.204Z,44.82
2017-02-02T00:57:21.821Z,44.82
2017-02-02T00:57:36.392Z,44.91
2017-02-02T00:57:50.928Z,45.01
2017-02-02T00:58:05.560Z,45.29
2017-02-02T00:58:20.189Z,45.2
2017-02-02T00:58:34.768Z,45.01
2017-02-02T00:58:49.336Z,45.2
2017-02-02T00:59:03.970Z,45.49
2017-02-02T00:59:18.596Z,45.49
2017-02-02T00:59:33.217Z,45.29
2017-02-02T00:59:47.853Z,46.26
2017-02-02T01:00:02.451Z,46.16
2017-02-02T01:00:17.067Z,46.26
2017-02-02T01:00:31.624Z,46.26
2017-02-02T01:00:46.179Z,45.87
2017-02-02T01:01:00.762Z,45.97
2017-02-02T01:01:15.374Z,45.87
2017-02-02T01:01:29.985Z,46.55
2017-02-02T01:01:44.501Z,46.74
2017-02-02T01:01:59.044Z,47.03
2017-02-02T01:02:13.520Z,47.61
2017-02-02T01:02:28.103Z,47.77
2017-02-02T01:02:42.682Z,47.51
2017-02-02T01:02:57.232Z,47.8
2017-02-02T01:03:11.806Z,47.7
2017-02-02T01:03:26.416Z,47.39
2017-02-02T01:03:41.015Z,47.39
2017-02-02T01:03:55.686Z,47.49
2017-02-02T01:04:10.338Z,47.41
2017-02-02T01:04:24.951Z,47.49
2017-02-02T01:04:39.511Z,47.41
2017-02-02T01:04:54.199Z,47.39
2017-02-02T01:05:08.831Z,47.41
2017-02-02T01:05:23.604Z,47.39
2017-02-02T01:05:38.160Z,47.2
2017-02-02T01:05:53.022Z,47.1
2017-02-02T01:06:07.693Z,47.03
2017-02-02T01:06:22.189Z,46.72
2017-02-02T01:06:36.767Z,46.36
2017-02-02T01:06:51.386Z,46.55
2017-02-02T01:07:05.936Z,46.36
2017-02-02T01:07:20.572Z,46.36
2017-02-02T01:07:35.168Z,46.26
2017-02-02T01:07:49.785Z,45.87
2017-02-02T01:08:04.368Z,45.97
2017-02-02T01:08:18.965Z,46.16
2017-02-02T01:08:33.505Z,46.16
2017-02-02T01:08:48.108Z,46.06
2017-02-02T01:09:02.763Z,46.26
2017-02-02T01:09:17.414Z,46.16
2017-02-02T01:09:32.074Z,46.26
2017-02-02T01:09:46.916Z,46.16
2017-02-02T01:10:01.490Z,46.16
2017-02-02T01:10:16.120Z,45.97
2017-02-02T01:10:30.694Z,46.06
2017-02-02T01:10:45.239Z,46.36
2017-02-02T01:11:00.055Z,46.84
2017-02-02T01:11:14.673Z,46.84
2017-02-02T01:11:29.209Z,46.64
2017-02-02T01:11:43.820Z,47.03
2017-02-02T01:11:58.419Z,47.58
2017-02-02T01:12:13.041Z,47.49
2017-02-02T01:12:27.673Z,47.39
2017-02-02T01:12:42.551Z,47.13
2017-02-02T01:12:57.168Z,47.49
2017-02-02T01:13:18.597Z,46.91
2017-02-02T01:13:33.693Z,46.72
2017-02-02T01:13:48.323Z,46.81
2017-02-02T01:14:34.308Z,47.58
2017-02-02T01:14:50.181Z,47.39
2017-02-02T01:15:27.666Z,47.58
2017-02-02T01:15:42.272Z,47.58
2017-02-02T01:17:17.860Z,47.77
2017-02-02T01:17:33.260Z,47.39
2017-02-02T01:18:44.453Z,47
2017-02-02T01:18:59.604Z,47.1
2017-02-02T01:20:16.424Z,46.62
2017-02-02T01:21:01.931Z,46.53
2017-02-02T01:21:16.756Z,46.62
2017-02-02T01:22:02.653Z,46.43
2017-02-02T01:22:17.226Z,46.72
2017-02-02T01:22:32.047Z,46.33
2017-02-02T01:22:46.637Z,46.23
2017-02-02T01:23:01.202Z,46.23
2017-02-02T01:23:16.436Z,46.43
2017-02-02T01:23:31.126Z,46.33
2017-02-02T01:23:47.847Z,46.33
2017-02-02T01:24:11.099Z,46.43
2017-02-02T01:24:37.139Z,46.43
2017-02-02T01:24:51.767Z,46.14
2017-02-02T01:25:40.653Z,46.14
2017-02-02T01:26:52.514Z,46.23
2017-02-02T01:27:29.137Z,45.85
2017-02-02T01:27:44.673Z,45.95
2017-02-02T01:28:00.528Z,46.14
2017-02-02T01:28:20.080Z,46.23
2017-02-02T01:28:39.921Z,46.04
2017-02-02T01:28:55.834Z,46.23
2017-02-02T01:29:13.124Z,46.14
2017-02-02T01:29:27.690Z,46.04
2017-02-02T01:29:42.466Z,45.95
2017-02-02T01:29:57.354Z,46.14
2017-02-02T01:30:12.376Z,46.14
2017-02-02T01:30:56.546Z,45.95
2017-02-02T01:31:11.100Z,46.23
2017-02-02T01:31:25.913Z,46.43
2017-02-02T01:31:40.745Z,46.81
2017-02-02T01:31:55.304Z,46.72
2017-02-02T01:32:11.127Z,46.91
2017-02-02T01:32:56.624Z,46.53
2017-02-02T01:33:11.199Z,46.23
2017-02-02T01:33:31.634Z,46.43
2017-02-02T01:33:46.403Z,46.23
2017-02-02T01:34:00.973Z,46.14
2017-02-02T01:34:54.339Z,45.95
2017-02-02T01:35:10.043Z,45.85
2017-02-02T01:35:24.715Z,46.02
2017-02-02T01:35:41.594Z,45.95
2017-02-02T01:35:56.203Z,46.04
2017-02-02T01:36:17.002Z,46.12
2017-02-02T01:36:31.597Z,46.14
2017-02-02T01:36:46.141Z,46.23
2017-02-02T01:38:12.191Z,45.85
2017-02-02T01:39:04.199Z,45.56
2017-02-02T01:39:24.953Z,45.56
2017-02-02T01:39:39.817Z,45.56
2017-02-02T01:40:07.960Z,45.56
2017-02-02T01:40:22.547Z,45.54
2017-02-02T01:40:37.229Z,45.64
2017-02-02T01:41:44.351Z,45.56
2017-02-02T01:41:58.982Z,45.54
2017-02-02T01:42:13.589Z,45.37
2017-02-02T01:42:28.216Z,45.66
2017-02-02T01:42:42.795Z,45.64
2017-02-02T01:42:57.470Z,45.76
2017-02-02T01:43:18.493Z,45.66
2017-02-02T01:43:35.507Z,45.47
2017-02-02T01:43:50.610Z,45.47
2017-02-02T01:44:05.225Z,45.56
2017-02-02T01:44:20.500Z,45.47
2017-02-02T01:44:35.117Z,45.56
2017-02-02T01:44:50.298Z,45.47
2017-02-02T01:45:04.860Z,45.37
2017-02-02T01:45:19.497Z,45.28
2017-02-02T01:45:34.052Z,45.28
2017-02-02T01:45:48.593Z,45.37
2017-02-02T01:46:03.156Z,45.37
2017-02-02T01:46:17.682Z,45.08
2017-02-02T01:46:32.328Z,45.18
2017-02-02T01:46:47.002Z,45.18
2017-02-02T01:47:02.258Z,45.28
2017-02-02T01:47:16.868Z,44.89
2017-02-02T01:47:31.588Z,45.28
2017-02-02T01:47:46.285Z,44.89
2017-02-02T01:48:00.850Z,45.08
2017-02-02T01:48:15.474Z,45.37
2017-02-02T01:48:30.033Z,45.08
2017-02-02T01:48:44.630Z,44.99
2017-02-02T01:48:59.199Z,45.08
2017-02-02T01:49:13.723Z,45.18
2017-02-02T01:49:28.338Z,44.99
2017-02-02T01:49:54.934Z,44.99
2017-02-02T01:50:10.004Z,45.18
2017-02-02T01:51:26.372Z,45.28
2017-02-02T01:52:58.292Z,45.28
2017-02-02T01:53:54.248Z,45.47
2017-02-02T01:54:15.397Z,45.56
2017-02-02T01:55:05.494Z,45.47
2017-02-02T01:55:20.074Z,45.47
2017-02-02T01:56:43.056Z,45.56
2017-02-02T01:56:57.732Z,45.56
2017-02-02T01:57:12.361Z,45.95
2017-02-02T01:57:26.960Z,46.14
2017-02-02T01:57:41.677Z,46.23
2017-02-02T01:57:56.234Z,46.04
2017-02-02T01:58:10.856Z,45.85
2017-02-02T01:58:25.441Z,45.76
2017-02-02T01:58:39.991Z,45.56
2017-02-02T01:58:54.601Z,45.66
2017-02-02T01:59:09.409Z,45.76
2017-02-02T01:59:24.088Z,45.76
2017-02-02T01:59:38.707Z,45.66
2017-02-02T01:59:53.406Z,45.95
2017-02-02T02:00:08.033Z,46.04
2017-02-02T02:00:22.678Z,46.14
2017-02-02T02:00:37.569Z,45.76
2017-02-02T02:00:52.117Z,46.33
2017-02-02T02:01:06.661Z,46.43
2017-02-02T02:01:21.259Z,46.33
2017-02-02T02:01:35.840Z,46.14
2017-02-02T02:01:50.467Z,46.23
2017-02-02T02:02:05.084Z,46.53
2017-02-02T02:02:19.658Z,46.53
2017-02-02T02:02:34.203Z,46.62
2017-02-02T02:02:48.844Z,46.53
2017-02-02T02:03:03.455Z,46.43
2017-02-02T02:03:18.026Z,46.43
2017-02-02T02:03:32.669Z,46.72
2017-02-02T02:03:47.310Z,46.62
2017-02-02T02:04:01.876Z,46.62
2017-02-02T02:04:16.390Z,46.53
2017-02-02T02:04:30.974Z,47
2017-02-02T02:04:45.572Z,46.72
2017-02-02T02:05:00.137Z,46.91
2017-02-02T02:05:14.735Z,46.91
2017-02-02T02:05:29.341Z,46.81
2017-02-02T02:05:43.879Z,46.72
2017-02-02T02:05:58.454Z,46.53
2017-02-02T02:06:13.020Z,46.72
2017-02-02T02:06:28.238Z,46.81
2017-02-02T02:06:42.806Z,46.43
2017-02-02T02:06:57.477Z,46.72
2017-02-02T02:07:12.076Z,47
2017-02-02T02:07:26.893Z,47.3
2017-02-02T02:07:41.476Z,47.49
2017-02-02T02:07:57.290Z,47.49
2017-02-02T02:08:42.767Z,47.39
2017-02-02T02:08:57.396Z,47.58
2017-02-02T02:09:42.876Z,47.39
2017-02-02T02:09:57.456Z,47.58
2017-02-02T02:10:12.031Z,47.49
2017-02-02T02:10:57.525Z,48.07
2017-02-02T02:11:12.116Z,47.87
2017-02-02T02:11:26.663Z,47.68
2017-02-02T02:11:41.237Z,47.58
2017-02-02T02:11:55.778Z,47.68
2017-02-02T02:12:55.809Z,47.1
2017-02-02T02:13:10.630Z,47
2017-02-02T02:13:25.210Z,46.81
2017-02-02T02:13:39.773Z,46.91
2017-02-02T02:15:10.763Z,47.68
2017-02-02T02:16:41.682Z,49.99
2017-02-02T02:16:56.272Z,49.79
2017-02-02T02:17:10.855Z,49.51
2017-02-02T02:17:25.435Z,49.41
2017-02-02T02:17:39.993Z,49.12
2017-02-02T02:17:54.617Z,48.64
2017-02-02T02:18:54.707Z,47.49
2017-02-02T02:19:09.245Z,47.39
2017-02-02T02:19:23.805Z,47.2
2017-02-02T02:19:38.388Z,47.2
2017-02-02T02:19:52.964Z,47.58
2017-02-02T02:20:07.548Z,47.68
2017-02-02T02:20:22.169Z,47.58
2017-02-02T02:20:36.663Z,47.68
2017-02-02T02:20:51.227Z,48.25
2017-02-02T02:21:05.853Z,47.68
2017-02-02T02:21:20.448Z,48.07
2017-02-02T02:22:05.928Z,48.16
2017-02-02T02:22:20.505Z,48.45
2017-02-02T02:22:35.266Z,48.74
2017-02-02T02:22:50.107Z,48.35
2017-02-02T02:23:04.704Z,48.45
2017-02-02T02:23:50.170Z,48.25
2017-02-02T02:24:50.142Z,48.45
2017-02-02T02:25:04.739Z,48.64
2017-02-02T02:25:19.328Z,48.83
2017-02-02T02:25:33.941Z,48.54
2017-02-02T02:25:48.529Z,48.45
2017-02-02T02:26:03.108Z,48.45
2017-02-02T02:26:17.697Z,48.74
2017-02-02T02:26:32.209Z,49.02
2017-02-02T02:27:17.733Z,48.95
2017-02-02T02:27:32.347Z,48.93
2017-02-02T02:27:46.912Z,48.93
2017-02-02T02:28:01.476Z,49.33
2017-02-02T02:28:16.035Z,49.6
2017-02-02T02:28:30.564Z,49.69
2017-02-02T02:28:45.127Z,50.08
2017-02-02T02:28:59.712Z,50.85
2017-02-02T02:29:14.304Z,52.39
2017-02-02T02:29:28.964Z,54.02
2017-02-02T02:29:43.576Z,55.08
2017-02-02T02:29:58.190Z,55.27
2017-02-02T02:30:43.698Z,54.6
2017-02-02T02:30:58.287Z,54.6
2017-02-02T02:31:12.822Z,54.69
2017-02-02T02:31:27.577Z,54.69
2017-02-02T02:31:42.198Z,54.5
2017-02-02T02:33:13.151Z,53.54
2017-02-02T02:33:27.732Z,53.64
2017-02-02T02:34:13.195Z,53.64
2017-02-02T02:34:27.742Z,53.54
2017-02-02T02:34:42.281Z,53.16
2017-02-02T02:34:56.793Z,53.35
2017-02-02T02:35:42.245Z,53.74
2017-02-02T02:35:56.886Z,53.92
2017-02-02T02:36:42.365Z,53.83
2017-02-02T02:36:56.894Z,53.45
2017-02-02T02:37:11.428Z,54.12
2017-02-02T02:37:26.051Z,54.31
2017-02-02T02:37:40.604Z,54.89
2017-02-02T02:37:55.159Z,54.89
2017-02-02T02:38:09.992Z,54.89
2017-02-02T02:38:24.596Z,54.79
2017-02-02T02:38:39.197Z,54.6
2017-02-02T02:39:24.679Z,54.22
2017-02-02T02:40:10.154Z,53.74
2017-02-02T02:40:24.706Z,54.22
2017-02-02T02:40:39.300Z,54.41
2017-02-02T02:40:53.873Z,54.31
2017-02-02T02:41:39.364Z,53.64
2017-02-02T02:42:24.889Z,53.92
2017-02-02T02:43:10.413Z,54.12
2017-02-02T02:43:24.980Z,54.22
2017-02-02T02:44:10.524Z,54.31
2017-02-02T02:44:25.084Z,53.83
2017-02-02T02:44:39.677Z,54.02
2017-02-02T02:45:51.054Z,53.35
2017-02-02T02:46:05.817Z,52.77
2017-02-02T02:46:20.429Z,52.58
2017-02-02T02:46:34.973Z,52.58
2017-02-02T02:46:49.555Z,52.58
2017-02-02T02:47:35.024Z,52.87
2017-02-02T02:47:49.543Z,52.58
2017-02-02T02:48:04.055Z,52.58
2017-02-02T02:48:18.609Z,52.87
2017-02-02T02:48:33.190Z,52.68
2017-02-02T02:48:47.732Z,53.25
2017-02-02T02:49:52.607Z,55.76
2017-02-02T02:50:07.165Z,55.76
2017-02-02T02:50:52.611Z,55.85
2017-02-02T02:51:07.212Z,55.56
2017-02-02T02:51:21.793Z,55.85
2017-02-02T02:51:36.365Z,55.76
2017-02-02T02:51:50.967Z,55.37
2017-02-02T02:52:05.535Z,55.27
2017-02-02T02:53:36.702Z,55.37
2017-02-02T02:53:51.329Z,55.27
2017-02-02T02:54:51.500Z,57
2017-02-02T02:55:36.968Z,59.12
2017-02-02T02:55:51.453Z,61.04
2017-02-02T02:56:06.057Z,62.38
2017-02-02T02:56:21.035Z,62.77
2017-02-02T02:56:35.637Z,62.87
2017-02-02T02:56:50.229Z,63.35
2017-02-02T02:58:21.210Z,63.25
2017-02-02T02:58:36.012Z,62.68
2017-02-02T02:58:50.608Z,62.87
2017-02-02T02:59:50.714Z,61.61
2017-02-02T03:00:05.301Z,61.23
2017-02-02T03:00:19.907Z,60.94
2017-02-02T03:01:15.925Z,60.66
2017-02-02T03:02:15.981Z,60.37
2017-02-02T03:02:30.774Z,60.37
2017-02-02T03:03:47.382Z,60.46
2017-02-02T03:04:32.826Z,59.89
2017-02-02T03:05:32.899Z,59.31
2017-02-02T03:05:48.045Z,59.02
2017-02-02T03:06:02.617Z,59.31
2017-02-02T03:06:17.220Z,59.24
2017-02-02T03:07:02.657Z,59.15
2017-02-02T03:07:48.141Z,59.34
2017-02-02T03:08:02.745Z,59.92
2017-02-02T03:08:17.292Z,60.17
2017-02-02T03:09:04.609Z,60.69
2017-02-02T03:09:19.117Z,60.85
2017-02-02T03:09:33.701Z,61.33
2017-02-02T03:09:48.467Z,61.23
2017-02-02T03:10:03.019Z,60.94
2017-02-02T03:10:17.620Z,60.56
2017-02-02T03:10:32.265Z,60.56
2017-02-02T03:10:46.881Z,60.46
2017-02-02T03:11:43.096Z,60.37
2017-02-02T03:11:57.601Z,60.46
2017-02-02T03:12:12.117Z,60.85
2017-02-02T03:12:26.733Z,61.04
2017-02-02T03:13:38.123Z,60.85
2017-02-02T03:13:52.717Z,61.23
2017-02-02T03:14:38.201Z,61.04
2017-02-02T03:14:53.380Z,60.56
2017-02-02T03:15:07.920Z,60.56
2017-02-02T03:15:22.507Z,60.66
2017-02-02T03:15:37.109Z,60.53
2017-02-02T03:15:51.670Z,60.56
2017-02-02T03:16:06.225Z,60.37
2017-02-02T03:16:20.778Z,60.08
2017-02-02T03:17:06.244Z,59.66
2017-02-02T03:17:20.795Z,59.86
2017-02-02T03:17:35.284Z,59.38
2017-02-02T03:17:49.775Z,59.38
2017-02-02T03:18:04.583Z,59.19
2017-02-02T03:18:19.152Z,59.19
2017-02-02T03:18:33.913Z,59.38
2017-02-02T03:18:48.442Z,58.89
2017-02-02T03:19:02.997Z,58.99
2017-02-02T03:19:17.552Z,58.03
2017-02-02T03:19:32.155Z,57.93
2017-02-02T03:19:46.700Z,57.75
2017-02-02T03:20:01.178Z,57.26
2017-02-02T03:20:15.726Z,57.17
2017-02-02T03:20:30.298Z,57.26
2017-02-02T03:20:44.814Z,57.36
2017-02-02T03:20:59.391Z,57.17
2017-02-02T03:21:13.981Z,57.17
2017-02-02T03:21:28.511Z,57
2017-02-02T03:21:43.080Z,57.07
2017-02-02T03:21:57.663Z,56.88
2017-02-02T03:22:12.182Z,56.52
2017-02-02T03:22:26.738Z,56.71
2017-02-02T03:22:41.338Z,56.78
2017-02-02T03:22:55.887Z,56.68
2017-02-02T03:23:10.459Z,56.88
2017-02-02T03:23:25.043Z,56.49
2017-02-02T03:23:39.635Z,57
2017-02-02T03:23:54.204Z,56.59
2017-02-02T03:24:08.747Z,56.78
2017-02-02T03:24:23.347Z,56.78
2017-02-02T03:24:38.130Z,56.78
2017-02-02T03:24:52.685Z,56.59
2017-02-02T03:25:07.266Z,56.78
2017-02-02T03:25:21.876Z,56.78
2017-02-02T03:25:36.458Z,56.78
2017-02-02T03:25:51.012Z,56.71
2017-02-02T03:26:05.610Z,56.68
2017-02-02T03:26:20.149Z,56.78
2017-02-02T03:26:34.669Z,56.68
2017-02-02T03:26:49.204Z,56.68
2017-02-02T03:27:03.775Z,56.78
2017-02-02T03:27:18.544Z,56.59
2017-02-02T03:27:33.193Z,56.78
2017-02-02T03:27:47.795Z,56.78
2017-02-02T03:28:02.382Z,56.78
2017-02-02T03:28:16.930Z,56.98
2017-02-02T03:28:31.441Z,56.88
2017-02-02T03:28:46.018Z,56.88
2017-02-02T03:29:00.605Z,56.68
2017-02-02T03:29:15.137Z,56.59
2017-02-02T03:29:29.674Z,56.59
2017-02-02T03:29:44.173Z,56.78
2017-02-02T03:29:58.740Z,56.59
2017-02-02T03:30:13.297Z,56.68
2017-02-02T03:30:27.835Z,56.49
2017-02-02T03:30:42.353Z,56.59
2017-02-02T03:30:56.934Z,56.88
2017-02-02T03:31:11.511Z,56.68
2017-02-02T03:31:26.110Z,56.59
2017-02-02T03:31:40.704Z,56.88
2017-02-02T03:31:55.255Z,56.4
2017-02-02T03:32:09.805Z,56.68
2017-02-02T03:32:24.415Z,56.49
2017-02-02T03:32:38.963Z,56.3
2017-02-02T03:32:53.495Z,56.11
2017-02-02T03:33:08.029Z,56.21
2017-02-02T03:33:22.574Z,55.91
2017-02-02T03:33:37.152Z,56.01
2017-02-02T03:33:51.701Z,56.21
2017-02-02T03:34:06.241Z,56.01
2017-02-02T03:34:20.799Z,56.11
2017-02-02T03:34:35.357Z,56.11
2017-02-02T03:34:49.923Z,56.01
2017-02-02T03:35:04.496Z,56.11
2017-02-02T03:35:19.076Z,56.3
2017-02-02T03:35:33.598Z,56.3
2017-02-02T03:35:48.168Z,56.59
2017-02-02T03:36:02.720Z,56.59
2017-02-02T03:36:17.282Z,56.59
2017-02-02T03:36:31.835Z,56.49
2017-02-02T03:36:46.456Z,56.78
2017-02-02T03:37:00.988Z,56.98
2017-02-02T03:37:15.589Z,57.07
2017-02-02T03:37:30.163Z,56.59
2017-02-02T03:37:44.743Z,56.68
2017-02-02T03:37:59.269Z,56.68
2017-02-02T03:38:13.778Z,56.78
2017-02-02T03:38:28.350Z,56.49
2017-02-02T03:38:42.950Z,56.68
2017-02-02T03:38:57.449Z,56.49
2017-02-02T03:39:11.922Z,56.49
2017-02-02T03:39:26.515Z,56.98
2017-02-02T03:39:41.378Z,56.59
2017-02-02T03:39:55.866Z,57.17
2017-02-02T03:40:10.445Z,56.98
2017-02-02T03:40:25.025Z,57.07
2017-02-02T03:40:39.659Z,57.07
2017-02-02T03:40:54.230Z,57.07
2017-02-02T03:41:08.784Z,57.07
2017-02-02T03:41:23.323Z,57.55
2017-02-02T03:41:37.865Z,57.65
2017-02-02T03:41:52.447Z,57.45
2017-02-02T03:42:07.051Z,57.65
2017-02-02T03:42:21.660Z,57.45
2017-02-02T03:42:36.247Z,57.26
2017-02-02T03:42:50.750Z,57.84
2017-02-02T03:43:05.267Z,57.75
2017-02-02T03:43:19.864Z,57.65
2017-02-02T03:43:34.525Z,57.45
2017-02-02T03:43:49.114Z,57.55
2017-02-02T03:44:03.672Z,57.55
2017-02-02T03:44:18.258Z,57.75
2017-02-02T03:44:32.811Z,57.75
2017-02-02T03:44:47.446Z,57.84
2017-02-02T03:45:02.039Z,57.93
2017-02-02T03:45:16.590Z,57.84
2017-02-02T03:45:31.227Z,57.45
2017-02-02T03:45:45.806Z,57.17
2017-02-02T03:46:00.374Z,57.45
2017-02-02T03:46:14.938Z,57.36
2017-02-02T03:46:29.512Z,57.17
2017-02-02T03:46:44.086Z,57.17
2017-02-02T03:46:58.663Z,57.36
2017-02-02T03:47:13.252Z,57.36
2017-02-02T03:47:27.828Z,57.55
2017-02-02T03:47:42.366Z,57.55
2017-02-02T03:47:56.911Z,57.36
2017-02-02T03:48:11.507Z,57.45
2017-02-02T03:48:26.058Z,57.55
2017-02-02T03:48:40.639Z,57.65
2017-02-02T03:48:55.189Z,57.17
2017-02-02T03:49:09.788Z,57.17
2017-02-02T03:49:24.359Z,57.17
2017-02-02T03:49:38.948Z,57.07
2017-02-02T03:49:53.521Z,57.26
2017-02-02T03:50:08.063Z,57.36
2017-02-02T03:50:22.637Z,57.17
2017-02-02T03:50:37.195Z,57.04
2017-02-02T03:50:51.764Z,57.23
2017-02-02T03:51:06.319Z,56.78
2017-02-02T03:51:20.881Z,57.07
2017-02-02T03:51:35.472Z,56.49
2017-02-02T03:51:49.994Z,56.66
2017-02-02T03:52:04.538Z,56.88
2017-02-02T03:52:19.089Z,56.85
2017-02-02T03:52:33.692Z,56.68
2017-02-02T03:52:48.237Z,56.88
2017-02-02T03:53:02.807Z,56.68
2017-02-02T03:53:17.401Z,56.66
2017-02-02T03:53:31.979Z,56.88
2017-02-02T03:53:46.538Z,56.78
2017-02-02T03:54:01.111Z,56.88
2017-02-02T03:54:15.733Z,56.88
2017-02-02T03:54:30.265Z,56.88
2017-02-02T03:54:44.830Z,56.98
2017-02-02T03:54:59.690Z,56.3
2017-02-02T03:55:14.274Z,56.68
2017-02-02T03:55:28.795Z,56.68
2017-02-02T03:55:43.377Z,56.68
2017-02-02T03:55:57.976Z,56.78
2017-02-02T03:56:12.531Z,56.78
2017-02-02T03:56:27.160Z,56.68